createdAt,value
2018-04-15T00:00:13.438Z,37.57
2018-04-15T00:01:18.089Z,40.20
2018-04-15T00:02:21.973Z,40.12
2018-04-15T00:03:25.901Z,39.63
2018-04-15T00:04:30.030Z,36.97
2018-04-15T00:05:34.820Z,32.70
2018-04-15T00:06:38.736Z,27.87
2018-04-15T00:07:44.817Z,33.28
2018-04-15T00:08:51.490Z,28.40
2018-04-15T00:09:57.221Z,26.35
2018-04-15T00:11:03.153Z,28.12
2018-04-15T00:12:08.377Z,24.00
2018-04-15T00:13:12.419Z,29.57
2018-04-15T00:14:17.711Z,25.08
2018-04-15T00:15:24.113Z,24.37
2018-04-15T00:16:28.242Z,25.55
2018-04-15T00:17:32.272Z,29.92
2018-04-15T00:18:36.390Z,22.60
2018-04-15T00:19:41.826Z,21.57
2018-04-15T00:20:46.538Z,25.67
2018-04-15T00:21:51.156Z,22.67
2018-04-15T00:22:55.827Z,21.58
2018-04-15T00:23:59.708Z,23.98
2018-04-15T00:25:03.575Z,23.67
2018-04-15T00:26:07.439Z,27.15
2018-04-15T00:27:11.426Z,22.05
2018-04-15T00:28:15.272Z,23.42
2018-04-15T00:29:19.282Z,22.60
2018-04-15T00:30:23.593Z,22.33
2018-04-15T00:31:27.725Z,22.13
2018-04-15T00:32:31.796Z,21.62
2018-04-15T00:33:37.715Z,18.73
2018-04-15T00:34:42.505Z,26.80
2018-04-15T00:35:46.816Z,18.17
2018-04-15T00:36:51.015Z,21.42
2018-04-15T00:37:55.054Z,23.50
2018-04-15T00:38:59.579Z,20.08
2018-04-15T00:40:03.689Z,20.55
2018-04-15T00:41:07.726Z,21.25
2018-04-15T00:42:11.762Z,22.17
2018-04-15T00:43:15.803Z,17.58
2018-04-15T00:44:19.859Z,15.52
2018-04-15T00:45:24.596Z,18.12
2018-04-15T00:46:28.683Z,15.48
2018-04-15T00:47:33.589Z,14.98
2018-04-15T00:48:38.403Z,20.02
2018-04-15T00:49:42.508Z,17.50
2018-04-15T00:50:47.356Z,17.42
2018-04-15T00:51:51.484Z,14.57
2018-04-15T00:52:55.619Z,10.82
2018-04-15T00:54:19.135Z,19.35
2018-04-15T00:55:23.037Z,15.77
2018-04-15T00:56:27.156Z,12.75
2018-04-15T00:57:31.907Z,11.57
2018-04-15T00:58:35.825Z,12.93
2018-04-15T00:59:39.704Z,13.65
2018-04-15T01:00:43.615Z,10.10
2018-04-15T01:01:48.281Z,15.77
2018-04-15T01:02:52.171Z,40.85
2018-04-15T01:03:56.063Z,22.98
2018-04-15T01:05:00.185Z,49.30
2018-04-15T01:06:04.108Z,18.75
2018-04-15T01:07:08.000Z,15.98
2018-04-15T01:08:11.921Z,12.10
2018-04-15T01:09:16.529Z,17.00
2018-04-15T01:10:21.394Z,24.50
2018-04-15T01:11:25.865Z,16.15
2018-04-15T01:12:30.739Z,16.40
2018-04-15T01:13:34.902Z,15.35
2018-04-15T01:14:38.972Z,16.33
2018-04-15T01:15:43.007Z,19.25
2018-04-15T01:16:47.257Z,18.25
2018-04-15T01:17:51.456Z,22.10
2018-04-15T01:18:55.472Z,18.80
2018-04-15T01:19:59.537Z,19.77
2018-04-15T01:21:03.673Z,18.65
2018-04-15T01:22:07.800Z,20.20
2018-04-15T01:23:12.837Z,18.70
2018-04-15T01:24:17.633Z,21.15
2018-04-15T01:25:22.906Z,19.27
2018-04-15T01:26:26.982Z,24.95
2018-04-15T01:27:31.809Z,17.27
2018-04-15T01:28:36.583Z,18.85
2018-04-15T01:29:41.160Z,23.40
2018-04-15T01:30:45.237Z,48.00
2018-04-15T01:31:50.033Z,28.23
2018-04-15T01:32:54.128Z,18.95
2018-04-15T01:33:58.174Z,22.98
2018-04-15T01:35:02.241Z,14.00
2018-04-15T01:39:16.815Z,22.00
2018-04-15T01:40:21.609Z,19.98
2018-04-15T01:41:25.925Z,18.95
2018-04-15T01:42:29.932Z,14.55
2018-04-15T01:43:34.791Z,19.45
2018-04-15T01:44:38.917Z,19.20
2018-04-15T01:45:42.943Z,23.70
2018-04-15T01:46:47.024Z,18.60
2018-04-15T01:47:51.358Z,15.75
2018-04-15T01:48:55.379Z,19.53
2018-04-15T01:50:00.164Z,15.48
2018-04-15T01:51:04.181Z,16.10
2018-04-15T01:52:08.368Z,19.92
2018-04-15T01:53:12.396Z,15.75
2018-04-15T01:54:16.499Z,16.25
2018-04-15T01:55:21.277Z,12.85
2018-04-15T01:56:25.278Z,17.35
2018-04-15T01:57:29.189Z,16.40
2018-04-15T01:58:33.441Z,18.80
2018-04-15T01:59:37.416Z,24.42
2018-04-15T02:00:42.093Z,18.23
2018-04-15T02:01:46.003Z,16.98
2018-04-15T02:02:49.820Z,15.20
2018-04-15T02:03:54.472Z,14.13
2018-04-15T02:04:58.291Z,16.73
2018-04-15T02:06:02.145Z,17.98
2018-04-15T02:07:07.023Z,20.85
2018-04-15T02:08:12.236Z,28.48
2018-04-15T02:09:17.150Z,23.98
2018-04-15T02:10:21.126Z,22.77
2018-04-15T02:11:25.132Z,27.48
2018-04-15T02:12:29.172Z,15.05
2018-04-15T02:13:34.105Z,15.07
2018-04-15T02:14:38.138Z,19.75
2018-04-15T02:15:42.896Z,20.17
2018-04-15T02:16:46.891Z,11.40
2018-04-15T02:17:51.247Z,15.63
2018-04-15T02:18:56.144Z,10.80
2018-04-15T02:20:00.147Z,14.73
2018-04-15T02:21:04.197Z,14.27
2018-04-15T02:22:08.241Z,14.40
2018-04-15T02:23:12.265Z,10.88
2018-04-15T02:24:16.567Z,15.65
2018-04-15T02:25:20.392Z,10.82
2018-04-15T02:26:24.233Z,12.05
2018-04-15T02:27:28.056Z,14.55
2018-04-15T02:28:32.098Z,16.05
2018-04-15T02:29:35.937Z,16.20
2018-04-15T02:30:39.788Z,17.23
2018-04-15T02:31:43.641Z,16.73
2018-04-15T02:32:47.525Z,17.35
2018-04-15T02:33:51.396Z,17.02
2018-04-15T02:34:55.414Z,56.40
2018-04-15T02:35:59.699Z,28.02
2018-04-15T02:37:03.862Z,22.27
2018-04-15T02:38:08.676Z,21.02
2018-04-15T02:39:13.744Z,17.23
2018-04-15T02:40:17.751Z,21.73
2018-04-15T02:41:21.852Z,23.40
2018-04-15T02:42:26.182Z,20.70
2018-04-15T02:43:31.172Z,23.15
2018-04-15T02:44:35.286Z,20.33
2018-04-15T02:45:39.385Z,17.23
2018-04-15T02:46:43.458Z,24.45
2018-04-15T02:47:47.501Z,24.27
2018-04-15T02:48:51.877Z,29.92
2018-04-15T02:49:55.968Z,24.37
2018-04-15T02:51:01.646Z,25.23
2018-04-15T02:52:05.693Z,27.02
2018-04-15T02:53:10.629Z,22.87
2018-04-15T02:54:14.948Z,24.80
2018-04-15T02:55:18.846Z,26.12
2018-04-15T02:56:22.711Z,27.20
2018-04-15T02:57:26.611Z,28.67
2018-04-15T02:58:30.608Z,25.90
2018-04-15T02:59:34.452Z,31.70
2018-04-15T03:00:38.622Z,28.90
2018-04-15T03:01:43.334Z,29.83
2018-04-15T03:02:47.950Z,92.10
2018-04-15T03:03:52.632Z,108.70
2018-04-15T03:04:56.758Z,82.03
2018-04-15T03:06:00.871Z,51.80
2018-04-15T03:07:05.632Z,41.53
2018-04-15T03:08:09.567Z,36.33
2018-04-15T03:09:13.560Z,35.55
2018-04-15T03:10:17.453Z,35.42
2018-04-15T03:11:21.321Z,37.80
2018-04-15T03:12:25.424Z,37.67
2018-04-15T03:13:29.349Z,37.27
2018-04-15T03:14:33.224Z,38.03
2018-04-15T03:15:37.075Z,38.70
2018-04-15T03:16:41.733Z,37.42
2018-04-15T03:17:45.590Z,44.80
2018-04-15T03:18:50.547Z,48.63
2018-04-15T03:19:54.389Z,53.50
2018-04-15T03:20:58.284Z,43.78
2018-04-15T03:22:02.138Z,45.53
2018-04-15T03:23:05.980Z,41.30
2018-04-15T03:24:12.084Z,43.53
2018-04-15T03:25:16.785Z,36.70
2018-04-15T03:26:20.622Z,36.28
2018-04-15T03:27:24.473Z,34.25
2018-04-15T03:28:28.345Z,36.85
2018-04-15T03:29:33.017Z,30.15
2018-04-15T03:30:36.889Z,31.90
2018-04-15T03:31:41.292Z,34.13
2018-04-15T03:32:45.284Z,29.97
2018-04-15T03:33:49.149Z,30.05
2018-04-15T03:34:53.004Z,31.50
2018-04-15T03:35:56.926Z,30.92
2018-04-15T03:37:00.882Z,30.55
2018-04-15T03:38:04.760Z,31.95
2018-04-15T03:39:09.396Z,29.90
2018-04-15T03:40:13.445Z,38.17
2018-04-15T03:41:17.833Z,34.55
2018-04-15T03:42:21.816Z,36.27
2018-04-15T03:43:25.851Z,38.20
2018-04-15T03:44:32.133Z,34.10
2018-04-15T03:45:36.908Z,37.97
2018-04-15T03:46:40.971Z,35.85
2018-04-15T03:47:44.969Z,36.97
2018-04-15T03:48:48.993Z,33.90
2018-04-15T03:49:52.961Z,39.67
2018-04-15T03:50:56.792Z,34.00
2018-04-15T03:52:00.639Z,30.77
2018-04-15T03:53:05.326Z,33.42
2018-04-15T03:54:11.375Z,32.08
2018-04-15T03:55:15.836Z,30.58
2018-04-15T03:56:19.970Z,30.88
2018-04-15T03:57:24.087Z,28.45
2018-04-15T03:58:28.713Z,35.75
2018-04-15T03:59:32.538Z,34.70
2018-04-15T04:00:37.209Z,36.25
2018-04-15T04:01:41.332Z,35.88
2018-04-15T04:02:45.339Z,33.15
2018-04-15T04:03:49.180Z,46.05
2018-04-15T04:04:53.024Z,34.60
2018-04-15T04:05:56.908Z,39.85
2018-04-15T04:07:00.729Z,42.55
2018-04-15T04:08:05.329Z,39.92
2018-04-15T04:09:09.152Z,37.75
2018-04-15T04:10:12.995Z,37.17
2018-04-15T04:11:16.853Z,37.22
2018-04-15T04:12:20.781Z,40.90
2018-04-15T04:13:24.649Z,41.35
2018-04-15T04:14:28.764Z,37.28
2018-04-15T04:15:32.760Z,38.28
2018-04-15T04:16:36.642Z,41.05
2018-04-15T04:17:49.358Z,35.72
2018-04-15T04:23:07.857Z,44.50
2018-04-15T04:26:21.484Z,36.05
2018-04-15T04:27:25.764Z,40.60
2018-04-15T04:28:29.966Z,42.40
2018-04-15T04:29:34.076Z,40.05
2018-04-15T04:30:37.993Z,38.45
2018-04-15T04:31:41.887Z,35.10
2018-04-15T04:32:45.731Z,38.63
2018-04-15T04:33:50.466Z,40.80
2018-04-15T04:34:54.288Z,38.85
2018-04-15T04:35:59.430Z,38.10
2018-04-15T04:37:03.369Z,35.10
2018-04-15T04:38:08.010Z,36.35
2018-04-15T04:39:11.847Z,33.50
2018-04-15T04:40:15.740Z,35.72
2018-04-15T04:41:19.621Z,42.92
2018-04-15T04:42:23.482Z,39.45
2018-04-15T04:43:28.108Z,47.55
2018-04-15T04:44:32.948Z,40.08
2018-04-15T04:45:36.869Z,40.55
2018-04-15T04:46:40.754Z,40.67
2018-04-15T04:47:44.578Z,42.33
2018-04-15T04:48:48.555Z,37.92
2018-04-15T04:49:52.443Z,36.80
2018-04-15T04:50:56.316Z,37.53
2018-04-15T04:52:00.169Z,38.78
2018-04-15T04:53:04.026Z,35.92
2018-04-15T04:54:07.904Z,37.25
2018-04-15T04:55:11.777Z,40.00
2018-04-15T04:56:15.641Z,40.08
2018-04-15T04:57:19.756Z,44.50
2018-04-15T04:58:23.632Z,43.80
2018-04-15T04:59:27.606Z,39.00
2018-04-15T05:00:31.450Z,41.10
2018-04-15T05:01:35.355Z,38.45
2018-04-15T05:02:39.247Z,37.25
2018-04-15T05:03:43.625Z,37.80
2018-04-15T05:04:48.417Z,37.85
2018-04-15T05:05:52.274Z,35.28
2018-04-15T05:06:58.347Z,40.12
2018-04-15T05:08:04.922Z,41.55
2018-04-15T05:09:09.660Z,35.25
2018-04-15T05:10:16.426Z,33.13
2018-04-15T05:11:20.581Z,33.67
2018-04-15T05:12:25.290Z,34.72
2018-04-15T05:13:29.387Z,36.90
2018-04-15T05:14:33.783Z,35.05
2018-04-15T05:15:37.968Z,33.47
2018-04-15T05:16:42.914Z,27.42
2018-04-15T05:17:46.837Z,27.23
2018-04-15T05:18:51.523Z,28.08
2018-04-15T05:19:55.376Z,27.15
2018-04-15T05:20:59.541Z,30.37
2018-04-15T05:22:04.113Z,27.65
2018-04-15T05:23:08.466Z,27.65
2018-04-15T05:24:12.882Z,82.17
2018-04-15T05:25:17.652Z,49.00
2018-04-15T05:26:21.679Z,40.67
2018-04-15T05:27:25.692Z,29.02
2018-04-15T05:28:29.707Z,31.70
2018-04-15T05:29:34.629Z,39.28
2018-04-15T05:30:38.629Z,34.47
2018-04-15T05:31:43.293Z,32.27
2018-04-15T05:35:58.334Z,42.17
2018-04-15T05:37:02.413Z,40.80
2018-04-15T05:38:06.371Z,37.97
2018-04-15T05:39:11.806Z,37.00
2018-04-15T05:40:15.885Z,37.43
2018-04-15T05:41:19.948Z,36.60
2018-04-15T05:42:24.124Z,33.33
2018-04-15T05:43:28.115Z,34.05
2018-04-15T05:44:32.418Z,124.78
2018-04-15T05:45:36.515Z,73.85
2018-04-15T05:46:40.532Z,75.20
2018-04-15T05:47:44.568Z,41.28
2018-04-15T05:48:49.384Z,40.65
2018-04-15T05:49:54.155Z,37.22
2018-04-15T05:50:58.447Z,34.60
2018-04-15T05:52:02.762Z,36.45
2018-04-15T05:53:06.807Z,35.30
2018-04-15T05:54:10.821Z,39.95
2018-04-15T05:55:15.610Z,33.88
2018-04-15T05:56:19.730Z,33.15
2018-04-15T05:57:24.527Z,35.65
2018-04-15T05:58:28.949Z,39.47
2018-04-15T05:59:33.025Z,39.97
2018-04-15T06:00:37.055Z,44.20
2018-04-15T06:01:41.201Z,70.70
2018-04-15T06:02:45.125Z,48.08
2018-04-15T06:03:49.214Z,44.25
2018-04-15T06:04:53.224Z,36.28
2018-04-15T06:05:57.240Z,33.00
2018-04-15T06:07:01.441Z,35.15
2018-04-15T06:08:06.319Z,32.63
2018-04-15T06:09:12.392Z,39.83
2018-04-15T06:10:16.435Z,54.47
2018-04-15T06:11:21.469Z,85.30
2018-04-15T06:12:26.138Z,39.30
2018-04-15T06:13:30.794Z,41.67
2018-04-15T06:14:35.425Z,30.85
2018-04-15T06:15:39.676Z,40.92
2018-04-15T06:16:43.606Z,45.20
2018-04-15T06:17:47.753Z,44.28
2018-04-15T06:18:51.668Z,48.60
2018-04-15T06:19:56.506Z,60.95
2018-04-15T06:21:00.774Z,40.83
2018-04-15T06:22:05.225Z,41.15
2018-04-15T06:23:09.562Z,34.70
2018-04-15T06:24:14.188Z,38.58
2018-04-15T06:25:18.143Z,51.70
2018-04-15T06:26:22.061Z,37.33
2018-04-15T06:27:27.256Z,67.40
2018-04-15T06:28:31.481Z,69.03
2018-04-15T06:29:35.393Z,42.05
2018-04-15T06:30:40.068Z,39.70
2018-04-15T06:31:44.342Z,33.35
2018-04-15T06:32:48.901Z,31.52
2018-04-15T06:33:52.830Z,39.37
2018-04-15T06:34:57.441Z,31.17
2018-04-15T06:36:02.155Z,29.73
2018-04-15T06:37:06.271Z,28.98
2018-04-15T06:38:11.936Z,28.38
2018-04-15T06:39:16.465Z,32.50
2018-04-15T06:40:21.533Z,26.77
2018-04-15T06:41:27.165Z,25.58
2018-04-15T06:42:33.897Z,28.27
2018-04-15T06:43:38.945Z,25.92
2018-04-15T06:44:43.194Z,25.12
2018-04-15T06:45:47.774Z,23.30
2018-04-15T06:46:52.606Z,22.35
2018-04-15T06:47:58.299Z,22.15
2018-04-15T06:49:03.848Z,23.62
2018-04-15T06:50:08.141Z,26.00
2018-04-15T06:51:12.792Z,35.13
2018-04-15T06:52:18.196Z,27.05
2018-04-15T06:53:22.537Z,23.65
2018-04-15T06:54:27.985Z,27.42
2018-04-15T06:55:33.081Z,26.17
2018-04-15T06:56:36.963Z,22.25
2018-04-15T06:57:41.171Z,19.70
2018-04-15T06:58:45.367Z,20.00
2018-04-15T06:59:49.385Z,25.12
2018-04-15T07:00:53.849Z,24.63
2018-04-15T07:01:57.884Z,20.08
2018-04-15T07:03:04.309Z,21.70
2018-04-15T07:04:08.698Z,20.58
2018-04-15T07:05:13.569Z,71.62
2018-04-15T07:06:17.674Z,26.08
2018-04-15T07:07:21.543Z,22.92
2018-04-15T07:08:25.675Z,28.15
2018-04-15T07:09:32.203Z,24.48
2018-04-15T07:10:36.232Z,22.48
2018-04-15T07:11:40.268Z,15.98
2018-04-15T07:12:46.181Z,13.23
2018-04-15T07:13:50.643Z,19.95
2018-04-15T07:14:55.275Z,16.85
2018-04-15T07:16:00.954Z,19.07
2018-04-15T07:17:05.082Z,17.52
2018-04-15T07:18:09.866Z,15.05
2018-04-15T07:19:14.943Z,16.70
2018-04-15T07:20:20.815Z,106.80
2018-04-15T07:21:26.463Z,21.10
2018-04-15T07:22:30.541Z,11.50
2018-04-15T07:23:36.783Z,13.60
2018-04-15T07:24:40.992Z,15.07
2018-04-15T07:25:44.992Z,11.70
2018-04-15T07:26:49.355Z,12.55
2018-04-15T07:27:53.337Z,10.80
2018-04-15T07:28:57.236Z,13.45
2018-04-15T07:30:03.792Z,13.18
2018-04-15T07:31:08.083Z,15.93
2018-04-15T07:32:12.078Z,15.57
2018-04-15T07:33:16.218Z,17.52
2018-04-15T07:34:20.305Z,13.95
2018-04-15T07:35:25.093Z,13.87
2018-04-15T07:36:29.078Z,12.40
2018-04-15T07:37:34.338Z,16.83
2018-04-15T07:38:38.554Z,11.63
2018-04-15T07:39:43.150Z,9.30
2018-04-15T07:40:47.626Z,15.63
2018-04-15T07:41:51.585Z,15.00
2018-04-15T07:42:55.451Z,13.23
2018-04-15T07:43:59.383Z,15.00
2018-04-15T07:45:03.348Z,10.40
2018-04-15T07:46:07.252Z,11.50
2018-04-15T07:47:11.826Z,13.70
2018-04-15T07:48:16.965Z,17.70
2018-04-15T07:49:21.709Z,21.15
2018-04-15T07:50:27.053Z,21.95
2018-04-15T07:51:31.850Z,14.52
2018-04-15T07:52:36.052Z,8.73
2018-04-15T07:53:41.769Z,9.80
2018-04-15T07:54:47.737Z,10.82
2018-04-15T07:55:51.807Z,9.35
2018-04-15T07:56:55.928Z,9.63
2018-04-15T07:57:59.973Z,12.82
2018-04-15T07:59:04.172Z,17.67
2018-04-15T08:00:08.285Z,28.87
2018-04-15T08:01:12.528Z,8.70
2018-04-15T08:02:17.102Z,6.97
2018-04-15T08:03:21.245Z,13.13
2018-04-15T08:04:25.330Z,13.98
2018-04-15T08:05:31.183Z,11.18
2018-04-15T08:06:36.273Z,9.48
2018-04-15T08:07:40.623Z,5.78
2018-04-15T08:08:45.122Z,7.15
2018-04-15T08:09:50.509Z,6.35
2018-04-15T08:10:55.332Z,3.90
2018-04-15T08:12:00.218Z,4.72
2018-04-15T08:13:04.231Z,6.53
2018-04-15T08:14:09.508Z,4.53
2018-04-15T08:15:13.541Z,8.70
2018-04-15T08:16:17.588Z,4.10
2018-04-15T08:17:21.782Z,3.53
2018-04-15T08:18:26.157Z,6.80
2018-04-15T08:19:30.533Z,4.80
2018-04-15T08:20:35.328Z,7.07
2018-04-15T08:21:39.307Z,4.30
2018-04-15T08:22:43.295Z,5.22
2018-04-15T08:23:47.258Z,5.85
2018-04-15T08:24:52.105Z,3.90
2018-04-15T08:25:56.363Z,4.35
2018-04-15T08:27:00.715Z,4.15
2018-04-15T08:28:04.718Z,8.00
2018-04-15T08:29:08.711Z,4.30
2018-04-15T08:30:12.805Z,6.28
2018-04-15T08:31:18.717Z,5.80
2018-04-15T08:32:24.246Z,6.50
2018-04-15T08:33:29.765Z,5.65
2018-04-15T08:34:35.347Z,17.23
2018-04-15T08:35:40.544Z,10.23
2018-04-15T08:36:45.610Z,17.67
2018-04-15T08:37:50.268Z,4.80
2018-04-15T08:38:54.153Z,3.67
2018-04-15T08:40:00.449Z,3.03
2018-04-15T08:41:04.355Z,4.70
2018-04-15T08:42:08.266Z,2.30
2018-04-15T08:43:12.952Z,2.67
2018-04-15T08:44:16.843Z,3.33
2018-04-15T08:45:21.019Z,2.22
2018-04-15T08:46:24.987Z,2.28
2018-04-15T08:47:32.010Z,6.20
2018-04-15T08:48:35.968Z,4.50
2018-04-15T08:49:40.475Z,1.90
2018-04-15T08:50:44.819Z,2.62
2018-04-15T08:51:48.744Z,3.70
2018-04-15T08:52:52.793Z,4.03
2018-04-15T08:53:56.709Z,12.35
2018-04-15T08:55:00.670Z,6.43
2018-04-15T08:56:05.376Z,3.95
2018-04-15T08:57:10.568Z,1.80
2018-04-15T08:58:14.373Z,1.80
2018-04-15T08:59:19.027Z,3.20
2018-04-15T09:00:24.122Z,8.90
2018-04-15T09:01:28.146Z,5.00
2018-04-15T09:02:34.052Z,3.17
2018-04-15T09:03:38.761Z,1.90
2018-04-15T09:04:43.105Z,3.40
2018-04-15T09:05:47.163Z,2.22
2018-04-15T09:06:51.225Z,3.50
2018-04-15T09:07:56.059Z,1.60
2018-04-15T09:08:59.962Z,2.78
2018-04-15T09:10:04.304Z,2.20
2018-04-15T09:11:08.194Z,1.75
2018-04-15T09:12:12.061Z,4.60
2018-04-15T09:13:15.997Z,1.83
2018-04-15T09:14:20.430Z,1.52
2018-04-15T09:15:25.422Z,3.10
2018-04-15T09:16:31.184Z,35.45
2018-04-15T09:17:36.274Z,13.38
2018-04-15T09:18:40.223Z,2.75
2018-04-15T09:19:44.185Z,1.55
2018-04-15T09:20:48.123Z,3.05
2018-04-15T09:21:52.759Z,1.95
2018-04-15T09:22:56.704Z,3.20
2018-04-15T09:24:01.135Z,1.73
2018-04-15T09:25:05.249Z,2.50
2018-04-15T09:26:10.126Z,6.97
2018-04-15T09:27:13.960Z,5.95
2018-04-15T09:28:19.044Z,2.58
2018-04-15T09:29:23.464Z,5.00
2018-04-15T09:30:27.551Z,1.85
2018-04-15T09:31:32.850Z,1.48
2018-04-15T09:32:38.853Z,1.12
2018-04-15T09:33:42.916Z,2.90
2018-04-15T09:34:46.968Z,3.87
2018-04-15T09:35:51.358Z,3.25
2018-04-15T09:36:55.389Z,3.15
2018-04-15T09:38:01.219Z,37.55
2018-04-15T09:39:06.581Z,9.27
2018-04-15T09:40:14.401Z,2.50
2018-04-15T09:41:19.126Z,1.60
2018-04-15T09:42:23.177Z,1.40
2018-04-15T09:43:27.988Z,1.60
2018-04-15T09:44:33.738Z,1.92
2018-04-15T09:45:39.478Z,5.30
2018-04-15T09:46:44.701Z,1.60
2018-04-15T09:47:49.794Z,1.62
2018-04-15T09:48:54.909Z,1.50
2018-04-15T09:49:59.011Z,1.60
2018-04-15T09:51:03.191Z,5.00
2018-04-15T09:52:07.227Z,2.65
2018-04-15T09:53:11.260Z,1.90
2018-04-15T09:54:22.786Z,3.60
2018-04-15T09:55:34.393Z,5.10
2018-04-15T09:56:38.810Z,18.12
2018-04-15T09:57:42.877Z,1.80
2018-04-15T09:58:46.761Z,1.60
2018-04-15T09:59:50.750Z,1.70
2018-04-15T10:00:58.864Z,1.85
2018-04-15T10:02:02.775Z,3.85
2018-04-15T10:03:06.712Z,1.87
2018-04-15T10:04:11.343Z,4.10
2018-04-15T10:05:16.255Z,1.70
2018-04-15T10:06:21.633Z,3.22
2018-04-15T10:07:25.929Z,2.73
2018-04-15T10:08:31.074Z,2.42
2018-04-15T10:09:35.125Z,1.40
2018-04-15T10:10:40.249Z,2.70
2018-04-15T10:11:45.217Z,3.60
2018-04-15T10:12:49.246Z,4.40
2018-04-15T10:13:53.253Z,1.05
2018-04-15T10:14:57.309Z,1.40
2018-04-15T10:16:01.336Z,2.70
2018-04-15T10:17:05.755Z,1.30
2018-04-15T10:18:09.776Z,6.10
2018-04-15T10:19:14.695Z,1.50
2018-04-15T10:20:18.740Z,3.58
2018-04-15T10:21:22.903Z,1.92
2018-04-15T10:22:27.712Z,1.12
2018-04-15T10:23:32.434Z,2.20
2018-04-15T10:24:37.074Z,1.70
2018-04-15T10:25:41.873Z,1.55
2018-04-15T10:26:46.797Z,1.55
2018-04-15T10:27:51.477Z,2.47
2018-04-15T10:28:58.337Z,2.00
2018-04-15T10:30:08.982Z,1.60
2018-04-15T10:31:21.247Z,3.20
2018-04-15T10:32:26.242Z,1.45
2018-04-15T10:33:30.100Z,1.10
2018-04-15T10:34:34.782Z,1.60
2018-04-15T10:35:38.660Z,2.50
2018-04-15T10:36:44.663Z,2.12
2018-04-15T10:37:50.905Z,2.97
2018-04-15T10:38:55.989Z,4.57
2018-04-15T10:40:00.768Z,3.80
2018-04-15T10:41:04.784Z,3.27
2018-04-15T10:42:08.857Z,3.72
2018-04-15T10:43:13.090Z,2.30
2018-04-15T10:44:17.210Z,3.78
2018-04-15T10:45:21.278Z,12.55
2018-04-15T10:46:25.333Z,5.90
2018-04-15T10:47:29.330Z,4.30
2018-04-15T10:48:34.380Z,1.90
2018-04-15T10:49:38.572Z,6.15
2018-04-15T10:50:42.583Z,5.57
2018-04-15T10:51:46.525Z,2.60
2018-04-15T10:52:50.418Z,1.60
2018-04-15T10:53:54.246Z,5.03
2018-04-15T10:54:58.175Z,2.17
2018-04-15T10:56:02.036Z,7.60
2018-04-15T10:57:06.032Z,1.80
2018-04-15T10:58:10.730Z,5.00
2018-04-15T10:59:15.037Z,4.07
2018-04-15T11:00:19.702Z,1.75
2018-04-15T11:01:23.611Z,3.57
2018-04-15T11:02:30.676Z,2.12
2018-04-15T11:03:36.468Z,2.60
2018-04-15T11:04:40.554Z,9.90
2018-04-15T11:05:44.916Z,2.47
2018-04-15T11:06:48.821Z,4.60
2018-04-15T11:07:52.860Z,3.03
2018-04-15T11:08:56.731Z,2.58
2018-04-15T11:10:00.573Z,1.95
2018-04-15T11:11:05.173Z,3.73
2018-04-15T11:12:09.575Z,7.30
2018-04-15T11:13:13.496Z,1.70
2018-04-15T11:14:18.148Z,4.60
2018-04-15T11:15:21.998Z,3.15
2018-04-15T11:16:25.901Z,6.90
2018-04-15T11:17:30.715Z,2.62
2018-04-15T11:18:34.626Z,1.60
2018-04-15T11:19:39.332Z,2.67
2018-04-15T11:20:43.997Z,5.40
2018-04-15T11:21:47.872Z,3.28
2018-04-15T11:22:54.058Z,2.60
2018-04-15T11:23:57.998Z,1.67
2018-04-15T11:25:02.934Z,2.67
2018-04-15T11:26:06.867Z,3.35
2018-04-15T11:27:10.741Z,22.77
2018-04-15T11:28:14.615Z,7.53
2018-04-15T11:29:19.419Z,4.90
2018-04-15T11:30:24.412Z,3.00
2018-04-15T11:31:29.238Z,3.83
2018-04-15T11:32:34.233Z,1.40
2018-04-15T11:33:38.121Z,1.45
2018-04-15T11:34:42.094Z,2.62
2018-04-15T11:35:46.761Z,1.55
2018-04-15T11:36:50.928Z,1.33
2018-04-15T11:37:55.028Z,3.47
2018-04-15T11:38:59.089Z,6.90
2018-04-15T11:40:03.694Z,1.90
2018-04-15T11:41:09.432Z,1.80
2018-04-15T11:42:13.357Z,3.55
2018-04-15T11:43:22.908Z,1.87
2018-04-15T11:44:27.821Z,1.50
2018-04-15T11:45:32.515Z,2.00
2018-04-15T11:46:36.856Z,1.87
2018-04-15T11:47:41.173Z,2.10
2018-04-15T11:48:45.148Z,2.70
2018-04-15T11:49:49.072Z,5.07
2018-04-15T11:50:52.953Z,2.95
2018-04-15T11:51:57.657Z,1.20
2018-04-15T11:53:02.501Z,1.80
2018-04-15T11:54:06.812Z,2.30
2018-04-15T11:55:10.966Z,1.50
2018-04-15T11:56:15.805Z,3.25
2018-04-15T11:57:20.649Z,4.50
2018-04-15T11:58:24.819Z,5.05
2018-04-15T11:59:28.869Z,22.60
2018-04-15T12:00:33.626Z,2.78
2018-04-15T12:01:37.667Z,0.90
2018-04-15T12:02:42.557Z,1.77
2018-04-15T12:03:46.767Z,1.48
2018-04-15T12:04:50.808Z,4.25
2018-04-15T12:05:54.950Z,3.73
2018-04-15T12:06:58.977Z,1.95
2018-04-15T12:08:03.164Z,2.80
2018-04-15T12:09:07.207Z,3.20
2018-04-15T12:10:11.111Z,5.10
2018-04-15T12:11:15.052Z,1.50
2018-04-15T12:12:18.937Z,1.85
2018-04-15T12:13:22.997Z,6.10
2018-04-15T12:14:27.629Z,2.20
2018-04-15T12:15:31.528Z,2.97
2018-04-15T12:16:35.434Z,3.58
2018-04-15T12:17:39.375Z,1.73
2018-04-15T12:18:43.422Z,17.37
2018-04-15T12:19:47.474Z,36.47
2018-04-15T12:20:52.082Z,7.32
2018-04-15T12:21:56.153Z,3.70
2018-04-15T12:23:00.338Z,7.10
2018-04-15T12:24:04.444Z,3.28
2018-04-15T12:25:09.602Z,8.50
2018-04-15T12:26:13.699Z,3.37
2018-04-15T12:27:17.925Z,8.73
2018-04-15T12:28:21.996Z,24.77
2018-04-15T12:29:25.965Z,4.30
2018-04-15T12:30:38.468Z,3.90
2018-04-15T12:31:42.823Z,7.77
2018-04-15T12:32:47.564Z,2.15
2018-04-15T12:33:52.155Z,7.30
2018-04-15T12:34:56.163Z,6.60
2018-04-15T12:36:00.347Z,1.83
2018-04-15T12:37:04.346Z,3.22
2018-04-15T12:38:08.459Z,17.70
2018-04-15T12:39:12.685Z,31.85
2018-04-15T12:40:16.578Z,26.08
2018-04-15T12:41:20.609Z,10.05
2018-04-15T12:42:25.529Z,6.50
2018-04-15T12:43:30.878Z,7.40
2018-04-15T12:44:34.846Z,8.27
2018-04-15T12:45:43.629Z,3.85
2018-04-15T12:46:47.723Z,3.50
2018-04-15T12:47:51.790Z,2.10
2018-04-15T12:48:55.829Z,1.20
2018-04-15T12:50:01.257Z,2.33
2018-04-15T12:51:05.528Z,3.70
2018-04-15T12:52:11.475Z,4.25
2018-04-15T12:53:15.542Z,1.62
2018-04-15T12:54:21.393Z,1.60
2018-04-15T12:55:26.261Z,2.20
2018-04-15T12:56:30.898Z,3.87
2018-04-15T12:57:35.018Z,6.00
2018-04-15T12:58:38.916Z,5.20
2018-04-15T12:59:42.828Z,4.95
2018-04-15T13:00:48.043Z,7.43
2018-04-15T13:01:51.981Z,7.35
2018-04-15T13:02:55.955Z,5.15
2018-04-15T13:04:00.830Z,5.95
2018-04-15T13:05:05.747Z,7.40
2018-04-15T13:06:09.838Z,4.85
2018-04-15T13:07:13.944Z,3.40
2018-04-15T13:08:17.834Z,5.80
2018-04-15T13:09:21.723Z,7.40
2018-04-15T13:10:25.704Z,6.32
2018-04-15T13:11:30.401Z,9.40
2018-04-15T13:12:34.675Z,7.47
2018-04-15T13:13:38.617Z,4.10
2018-04-15T13:14:42.884Z,11.43
2018-04-15T13:15:46.997Z,3.50
2018-04-15T13:16:54.700Z,4.18
2018-04-15T13:17:59.564Z,6.47
2018-04-15T13:19:04.032Z,16.93
2018-04-15T13:20:07.757Z,6.40
2018-04-15T13:21:11.845Z,5.35
2018-04-15T13:22:16.774Z,8.38
2018-04-15T13:23:21.581Z,11.60
2018-04-15T13:24:27.866Z,5.22
2018-04-15T13:25:33.450Z,7.03
2018-04-15T13:26:39.778Z,8.30
2018-04-15T13:27:43.910Z,6.25
2018-04-15T13:28:48.777Z,21.07
2018-04-15T13:29:52.842Z,4.05
2018-04-15T13:30:57.892Z,3.60
2018-04-15T13:32:02.137Z,4.68
2018-04-15T13:33:06.239Z,3.47
2018-04-15T13:34:10.147Z,4.30
2018-04-15T13:35:14.436Z,3.62
2018-04-15T13:36:18.393Z,3.55
2018-04-15T13:37:22.663Z,5.30
2018-04-15T13:38:26.717Z,6.00
2018-04-15T13:39:31.226Z,13.02
2018-04-15T13:40:35.342Z,9.02
2018-04-15T13:41:40.226Z,3.75
2018-04-15T13:42:44.972Z,30.17
2018-04-15T13:43:50.444Z,16.27
2018-04-15T13:44:56.551Z,19.75
2018-04-15T13:46:01.172Z,13.82
2018-04-15T13:47:06.424Z,16.37
2018-04-15T13:48:11.187Z,15.43
2018-04-15T13:49:15.678Z,13.38
2018-04-15T13:50:20.064Z,10.48
2018-04-15T13:51:24.342Z,23.98
2018-04-15T13:52:28.735Z,4.20
2018-04-15T13:53:34.118Z,6.47
2018-04-15T13:54:40.186Z,12.52
2018-04-15T13:55:44.330Z,26.37
2018-04-15T13:56:48.961Z,28.67
2018-04-15T13:57:53.393Z,9.32
2018-04-15T13:58:57.531Z,11.60
2018-04-15T14:00:02.562Z,17.10
2018-04-15T14:01:07.468Z,4.10
2018-04-15T14:02:12.494Z,4.43
2018-04-15T14:03:17.437Z,7.78
2018-04-15T14:04:21.348Z,9.10
2018-04-15T14:05:25.317Z,2.90
2018-04-15T14:06:30.308Z,3.50
2018-04-15T14:07:35.418Z,3.05
2018-04-15T14:08:40.699Z,7.95
2018-04-15T14:09:45.939Z,3.87
2018-04-15T14:10:50.123Z,5.87
2018-04-15T14:11:54.492Z,6.57
2018-04-15T14:13:01.442Z,3.70
2018-04-15T14:14:07.123Z,2.67